Time;durP1;ratioP1;P1;durP2;ratioP2;P2;SDS_P1;SDS_P2;PMS_P1;PMS_P2;Temp;Humidity;BMP_temperature;BMP_pressure;BME280_temperature;BME280_humidity;BME280_pressure;Samples;Min_cycle;Max_cycle;Signal;HPM_P1;HPM_P2
2021/05/27 00:02:19;;;;;;;19.90;11.35;;;;;;;18.42;74.26;100274.50;5032891;28;20143;-69
2021/05/27 00:04:44;;;;;;;15.50;11.38;;;;;;;18.41;74.13;100283.50;5046455;28;20041;-71
2021/05/27 00:07:10;;;;;;;15.65;12.02;;;;;;;18.36;74.59;100290.88;5043305;28;20056;-69
2021/05/27 00:09:36;;;;;;;22.77;11.75;;;;;;;18.17;75.26;100285.38;5045943;28;20048;-69
2021/05/27 00:12:03;;;;;;;18.85;11.25;;;;;;;18.24;75.06;100279.75;5027184;28;20044;-68
2021/05/27 00:14:30;;;;;;;17.08;11.95;;;;;;;18.21;75.08;100285.25;5007027;28;20102;-69
2021/05/27 00:16:57;;;;;;;17.88;12.20;;;;;;;18.20;75.24;100280.81;5035835;28;20239;-71
2021/05/27 00:19:23;;;;;;;20.80;11.68;;;;;;;18.39;74.74;100281.81;5012953;28;20051;-74
2021/05/27 00:21:49;;;;;;;17.45;12.57;;;;;;;18.45;74.75;100278.84;5045283;28;20135;-72
2021/05/27 00:24:15;;;;;;;17.67;11.40;;;;;;;18.56;73.69;100277.44;5029457;28;20040;-73
2021/05/27 00:26:41;;;;;;;16.98;12.80;;;;;;;18.52;74.45;100264.22;5023835;28;20064;-73
2021/05/27 00:29:10;;;;;;;23.67;12.27;;;;;;;18.67;74.27;100280.50;5033514;28;20064;-74
2021/05/27 00:31:36;;;;;;;28.42;14.35;;;;;;;18.39;75.50;100276.44;5008300;28;20144;-74
2021/05/27 00:34:03;;;;;;;22.27;14.55;;;;;;;18.45;76.25;100270.78;5039832;28;20135;-74
2021/05/27 00:36:31;;;;;;;18.67;14.27;;;;;;;18.35;77.48;100280.19;5043949;28;20102;-73
2021/05/27 00:38:57;;;;;;;21.80;14.38;;;;;;;18.34;76.72;100273.03;5022849;28;20053;-73
2021/05/27 00:41:23;;;;;;;19.58;14.00;;;;;;;18.48;76.35;100263.50;5007143;28;20516;-73
2021/05/27 00:43:49;;;;;;;20.65;13.25;;;;;;;18.54;76.03;100263.19;5039688;28;20048;-72
2021/05/27 00:46:15;;;;;;;19.15;14.00;;;;;;;18.66;75.39;100267.19;4995197;28;20096;-73
2021/05/27 00:48:57;;;;;;;21.60;14.07;;;;;;;18.62;75.80;100261.06;5023637;28;20053;-71
2021/05/27 00:51:25;;;;;;;17.23;13.50;;;;;;;18.56;75.69;100244.34;4992024;28;20045;-74
2021/05/27 00:53:51;;;;;;;20.60;13.10;;;;;;;18.62;76.00;100239.56;5016670;28;20049;-73
2021/05/27 00:56:17;;;;;;;18.98;12.93;;;;;;;18.66;74.79;100264.50;5024328;28;20049;-72
2021/05/27 00:58:43;;;;;;;21.50;13.35;;;;;;;18.56;75.32;100263.13;5024040;28;20561;-71
2021/05/27 01:01:09;;;;;;;21.73;15.85;;;;;;;18.54;76.19;100262.31;5038429;28;20125;-73
2021/05/27 01:03:37;;;;;;;20.42;15.95;;;;;;;18.65;76.39;100257.34;5029837;28;20447;-74
2021/05/27 01:06:03;;;;;;;20.77;16.52;;;;;;;18.60;75.44;100256.69;5048542;28;20041;-72
2021/05/27 01:08:29;;;;;;;21.20;16.23;;;;;;;18.69;75.17;100261.66;5046586;28;20405;-73
2021/05/27 01:10:57;;;;;;;24.20;18.20;;;;;;;18.68;75.09;100260.78;5047074;28;20539;-71
2021/05/27 01:13:24;;;;;;;23.65;17.55;;;;;;;18.62;75.13;100254.81;5032968;28;20442;-69
2021/05/27 01:15:52;;;;;;;26.02;17.70;;;;;;;18.66;75.26;100251.91;5009312;28;20052;-69
2021/05/27 01:18:22;;;;;;;25.42;17.40;;;;;;;18.64;75.08;100252.91;5013262;28;20155;-69
2021/05/27 01:20:50;;;;;;;26.08;17.55;;;;;;;18.64;75.13;100260.97;5044237;28;20409;-71
2021/05/27 01:23:18;;;;;;;26.08;17.58;;;;;;;18.63;74.84;100249.34;5034169;28;20072;-70
2021/05/27 01:25:49;;;;;;;23.05;18.02;;;;;;;18.71;74.59;100251.72;5048132;28;20095;-67
2021/05/27 01:28:15;;;;;;;24.33;17.50;;;;;;;18.75;74.87;100264.06;5044916;28;20493;-72
2021/05/27 01:30:43;;;;;;;28.33;17.25;;;;;;;18.77;74.73;100243.34;5005373;28;20095;-72
2021/05/27 01:33:22;;;;;;;20.70;16.88;;;;;;;18.79;75.11;100246.88;5026708;28;20049;-70
2021/05/27 01:35:48;;;;;;;25.38;17.05;;;;;;;18.83;74.39;100249.31;5029884;28;20127;-70
2021/05/27 01:38:15;;;;;;;27.65;17.25;;;;;;;18.89;74.09;100251.75;5048138;28;20044;-69
2021/05/27 01:40:45;;;;;;;27.83;19.08;;;;;;;18.72;74.61;100227.47;5018511;28;20048;-69
2021/05/27 01:43:13;;;;;;;29.02;18.80;;;;;;;18.85;74.36;100241.19;5024749;28;20044;-70
2021/05/27 01:45:42;;;;;;;25.77;18.85;;;;;;;18.70;75.33;100239.22;5013843;28;20045;-70
2021/05/27 01:48:08;;;;;;;24.05;19.05;;;;;;;18.73;75.42;100233.69;5039426;28;20064;-73
2021/05/27 01:50:38;;;;;;;30.52;17.30;;;;;;;18.83;75.29;100243.94;5020203;28;20394;-73
2021/05/27 01:53:07;;;;;;;23.17;17.10;;;;;;;18.85;75.14;100243.88;5041427;28;20041;-71
2021/05/27 01:55:34;;;;;;;22.08;16.45;;;;;;;18.84;74.70;100248.41;5030280;28;20041;-72
2021/05/27 01:58:00;;;;;;;21.52;16.48;;;;;;;18.76;74.45;100230.88;5048241;28;20573;-72
2021/05/27 02:00:28;;;;;;;28.58;18.27;;;;;;;18.76;75.20;100244.31;5013524;28;20033;-70
2021/05/27 02:02:58;;;;;;;25.00;17.85;;;;;;;18.73;75.04;100222.94;5026396;28;20083;-73
2021/05/27 02:05:30;;;;;;;28.77;18.23;;;;;;;18.86;74.88;100238.44;5020571;28;20076;-69
2021/05/27 02:07:58;;;;;;;29.25;19.30;;;;;;;18.70;75.93;100237.41;5021916;28;20130;-70
2021/05/27 02:10:33;;;;;;;27.40;18.13;;;;;;;18.80;74.80;100233.38;5027888;28;20049;-69
2021/05/27 02:12:59;;;;;;;25.40;19.17;;;;;;;18.85;74.75;100243.88;5010029;28;20036;-69
2021/05/27 02:15:27;;;;;;;29.48;18.23;;;;;;;18.82;74.85;100235.97;5000844;28;20156;-71
2021/05/27 02:17:54;;;;;;;25.65;18.73;;;;;;;18.78;74.50;100231.69;5040825;28;20045;-69
2021/05/27 02:20:20;;;;;;;26.75;19.17;;;;;;;18.81;74.91;100239.59;5034327;28;20063;-71
2021/05/27 02:22:47;;;;;;;28.02;20.17;;;;;;;18.62;75.39;100238.72;5029620;28;20061;-70
2021/05/27 02:25:18;;;;;;;23.33;18.98;;;;;;;18.73;74.55;100247.13;5037724;28;20116;-71
2021/05/27 02:27:48;;;;;;;30.85;20.60;;;;;;;18.70;74.99;100252.66;5010991;28;20148;-71
2021/05/27 02:30:17;;;;;;;27.02;21.40;;;;;;;18.75;74.77;100247.94;5041481;28;20098;-70
2021/05/27 02:32:44;;;;;;;31.50;20.55;;;;;;;18.75;75.17;100258.69;5015152;28;20044;-71
2021/05/27 02:35:10;;;;;;;29.25;22.70;;;;;;;18.33;76.58;100257.88;5012781;28;20045;-70
2021/05/27 02:37:37;;;;;;;29.83;21.80;;;;;;;18.37;76.29;100235.34;4993890;28;20057;-72
2021/05/27 02:40:07;;;;;;;33.55;21.88;;;;;;;18.65;75.68;100266.28;5033923;28;20851;-70
2021/05/27 02:42:34;;;;;;;33.28;22.20;;;;;;;18.66;75.36;100259.97;5028429;28;20049;-72
2021/05/27 02:45:03;;;;;;;36.20;23.25;;;;;;;18.57;76.34;100272.94;5037556;28;20095;-71
2021/05/27 02:47:31;;;;;;;30.20;22.80;;;;;;;18.63;76.08;100278.91;5000802;28;20041;-71
2021/05/27 02:49:59;;;;;;;31.98;23.23;;;;;;;18.49;76.57;100254.50;5022380;28;20037;-72
2021/05/27 02:52:27;;;;;;;36.67;27.10;;;;;;;18.33;78.33;100255.19;5038196;28;20051;-71
2021/05/27 02:54:53;;;;;;;33.63;23.65;;;;;;;18.53;77.50;100271.31;5043988;28;20048;-72
2021/05/27 02:57:21;;;;;;;32.70;24.27;;;;;;;18.51;78.12;100275.91;5028734;28;20048;-71
2021/05/27 02:59:48;;;;;;;32.08;24.85;;;;;;;18.60;78.94;100273.69;5033646;28;20063;-73
2021/05/27 03:02:18;;;;;;;34.42;26.33;;;;;;;18.67;78.20;100267.06;4986031;28;20057;-72
2021/05/27 03:04:44;;;;;;;34.22;25.85;;;;;;;18.17;79.44;100263.88;5029845;28;20824;-70
2021/05/27 03:07:14;;;;;;;32.90;26.77;;;;;;;18.13;79.79;100263.22;5045890;28;20500;-73
2021/05/27 03:09:41;;;;;;;30.77;25.38;;;;;;;18.10;78.82;100272.28;5029716;28;20045;-72
2021/05/27 03:12:07;;;;;;;34.75;25.35;;;;;;;18.01;78.63;100243.16;5023304;28;20041;-72
2021/05/27 03:14:33;;;;;;;34.58;25.55;;;;;;;18.13;79.84;100242.63;5045843;28;20055;-71
2021/05/27 03:17:03;;;;;;;33.58;25.67;;;;;;;18.13;80.10;100266.78;5021696;28;20131;-69
2021/05/27 03:19:30;;;;;;;33.55;25.52;;;;;;;17.88;80.16;100256.22;5022719;28;20124;-68
2021/05/27 03:21:57;;;;;;;37.47;27.65;;;;;;;17.98;80.59;100262.94;5012609;28;20523;-69
2021/05/27 03:24:23;;;;;;;38.90;27.73;;;;;;;18.13;82.50;100264.09;5027875;28;20056;-68
2021/05/27 03:26:52;;;;;;;36.00;26.55;;;;;;;18.18;83.39;100256.72;5044849;28;20045;-73
2021/05/27 03:29:19;;;;;;;41.20;30.92;;;;;;;17.95;85.57;100255.03;5044905;28;20088;-69
2021/05/27 03:31:45;;;;;;;38.58;27.95;;;;;;;17.95;83.85;100251.47;4999318;28;20040;-71
2021/05/27 03:34:12;;;;;;;39.13;28.05;;;;;;;17.96;84.77;100259.44;5044432;28;20531;-71
2021/05/27 03:36:39;;;;;;;40.40;29.45;;;;;;;17.85;83.80;100266.22;5016825;28;20041;-70
2021/05/27 03:39:07;;;;;;;38.33;28.13;;;;;;;17.85;85.05;100242.06;5008602;28;20061;-68
2021/05/27 03:41:33;;;;;;;34.63;25.23;;;;;;;18.01;84.61;100251.22;5035416;28;20041;-69
2021/05/27 03:44:03;;;;;;;37.08;25.40;;;;;;;17.83;83.75;100258.22;5025019;28;20099;-72
2021/05/27 03:46:35;;;;;;;36.45;27.35;;;;;;;18.08;85.74;100259.88;5025894;28;20045;-68
2021/05/27 03:49:02;;;;;;;29.25;22.17;;;;;;;17.99;82.58;100259.31;5012542;28;20171;-69
2021/05/27 03:51:29;;;;;;;31.10;24.38;;;;;;;18.20;84.03;100256.66;4999321;28;20037;-70
2021/05/27 03:53:57;;;;;;;30.48;24.17;;;;;;;18.25;83.30;100257.31;5045803;28;20053;-69
2021/05/27 03:56:25;;;;;;;25.58;20.13;;;;;;;18.38;80.49;100251.41;5045951;28;20036;-69
2021/05/27 04:01:52;;;;;;;29.13;21.75;;;;;;;18.30;78.75;100266.94;5041823;28;20497;-78
2021/05/27 04:07:24;;;;;;;24.20;19.58;;;;;;;18.42;77.34;100255.69;5035566;28;20501;-79
2021/05/27 04:09:50;;;;;;;22.52;18.63;;;;;;;18.57;76.73;100272.94;5025604;28;20120;-77
2021/05/27 04:17:45;;;;;;;20.75;16.63;;;;;;;19.08;74.16;100273.25;5036548;28;20381;-77
2021/05/27 04:20:12;;;;;;;28.83;18.30;;;;;;;19.04;74.55;100277.03;5031162;28;20047;-75
2021/05/27 04:22:42;;;;;;;24.50;17.65;;;;;;;19.03;74.58;100269.91;5015093;28;20601;-73
2021/05/27 04:25:09;;;;;;;25.20;17.52;;;;;;;19.10;74.66;100277.63;5041929;28;20128;-72
2021/05/27 04:27:36;;;;;;;30.65;18.10;;;;;;;19.14;74.64;100281.91;5041830;28;20160;-74
2021/05/27 04:30:13;;;;;;;28.65;18.52;;;;;;;19.25;74.52;100279.63;5026069;28;20045;-75
2021/05/27 04:32:54;;;;;;;33.15;18.77;;;;;;;19.28;73.99;100281.31;5039374;28;20049;-76
2021/05/27 04:35:33;;;;;;;32.05;19.00;;;;;;;19.17;73.77;100267.44;5041899;28;20087;-77
2021/05/27 04:38:09;;;;;;;33.72;18.15;;;;;;;19.30;73.45;100280.28;5039895;28;20488;-76
2021/05/27 04:40:37;;;;;;;31.13;18.48;;;;;;;19.34;73.17;100283.72;5030119;28;20041;-76
2021/05/27 04:43:05;;;;;;;33.72;20.35;;;;;;;19.21;73.35;100278.00;5048978;28;20048;-77
2021/05/27 04:45:31;;;;;;;33.38;19.65;;;;;;;19.28;73.60;100287.56;5048369;28;20079;-78
2021/05/27 04:47:58;;;;;;;29.38;18.08;;;;;;;19.36;73.21;100279.13;5039849;28;20607;-76
2021/05/27 04:50:25;;;;;;;34.42;19.77;;;;;;;19.17;73.41;100271.03;5000432;28;20041;-77
2021/05/27 04:52:52;;;;;;;29.02;19.20;;;;;;;19.30;73.06;100280.28;5026590;28;20053;-74
2021/05/27 04:55:20;;;;;;;31.67;20.98;;;;;;;19.38;73.92;100279.94;5033270;28;20049;-76
2021/05/27 04:57:47;;;;;;;36.08;19.15;;;;;;;19.45;73.82;100276.00;5016555;28;20040;-76
2021/05/27 05:00:19;;;;;;;34.78;20.80;;;;;;;19.45;73.75;100278.69;5048122;28;20052;-72
2021/05/27 05:02:45;;;;;;;43.30;28.00;;;;;;;19.45;72.74;100267.91;5013466;28;20045;-74
2021/05/27 05:05:15;;;;;;;32.70;18.63;;;;;;;19.28;73.67;100279.50;5031221;28;20071;-78
2021/05/27 05:07:43;;;;;;;31.13;17.75;;;;;;;19.37;73.24;100279.06;5047606;28;20070;-71
2021/05/27 05:10:11;;;;;;;25.80;16.92;;;;;;;19.37;73.65;100280.84;5014829;28;20421;-72
2021/05/27 05:12:45;;;;;;;24.17;17.45;;;;;;;19.29;73.48;100275.84;5033780;28;20117;-71
2021/05/27 05:15:16;;;;;;;29.42;17.40;;;;;;;19.43;73.18;100262.63;5030316;28;20079;-75
2021/05/27 05:17:43;;;;;;;23.75;17.30;;;;;;;19.44;73.50;100253.63;5033314;28;20044;-75
2021/05/27 05:20:10;;;;;;;23.08;16.50;;;;;;;19.58;72.25;100247.56;5030989;28;20068;-76
2021/05/27 05:22:36;;;;;;;25.88;16.67;;;;;;;19.54;71.88;100262.97;4998360;28;20036;-72
2021/05/27 05:25:03;;;;;;;22.95;16.08;;;;;;;19.56;71.52;100266.47;5029303;28;20048;-79
2021/05/27 05:27:29;;;;;;;19.58;15.90;;;;;;;19.65;71.59;100257.06;5013083;28;20111;-80
2021/05/27 05:29:55;;;;;;;19.20;16.67;;;;;;;19.66;71.09;100257.00;5010723;28;20041;-72
2021/05/27 05:32:21;;;;;;;22.05;16.25;;;;;;;19.60;71.26;100267.19;5003361;28;20200;-72
2021/05/27 05:34:47;;;;;;;24.13;17.63;;;;;;;19.28;71.96;100263.38;5030469;28;20072;-70
2021/05/27 05:37:13;;;;;;;23.10;17.00;;;;;;;19.33;72.34;100266.69;4993390;28;20399;-71
2021/05/27 05:39:39;;;;;;;24.60;17.45;;;;;;;19.30;73.09;100265.97;5026693;28;20570;-69
2021/05/27 05:42:05;;;;;;;25.02;17.95;;;;;;;19.21;73.57;100269.03;5012086;28;20139;-71
2021/05/27 05:44:31;;;;;;;25.30;19.35;;;;;;;19.10;73.84;100269.56;5033081;28;20037;-72
2021/05/27 05:46:57;;;;;;;21.33;16.95;;;;;;;19.17;73.65;100256.69;5021731;28;20072;-71
2021/05/27 05:49:23;;;;;;;24.27;18.73;;;;;;;19.08;73.92;100270.56;5043968;28;20041;-73
2021/05/27 05:51:49;;;;;;;24.55;17.83;;;;;;;19.06;74.15;100264.41;5039238;28;20040;-70
2021/05/27 05:54:15;;;;;;;25.15;17.17;;;;;;;19.19;73.47;100274.50;5011583;28;20063;-73
2021/05/27 05:56:40;;;;;;;26.88;19.10;;;;;;;19.19;74.18;100263.75;5043979;28;20040;-69
2021/05/27 05:59:06;;;;;;;23.15;18.05;;;;;;;19.25;74.23;100268.00;5037753;28;20102;-70
2021/05/27 06:01:32;;;;;;;25.98;19.10;;;;;;;19.21;74.31;100267.25;5043139;28;20435;-75
2021/05/27 06:03:59;;;;;;;22.33;18.02;;;;;;;19.33;73.70;100261.31;5026099;28;20530;-71
2021/05/27 06:06:39;;;;;;;26.48;20.50;;;;;;;19.34;74.31;100263.06;5018456;28;20040;-75
2021/05/27 06:09:19;;;;;;;28.42;19.08;;;;;;;19.48;73.54;100265.09;5042021;28;20076;-72
2021/05/27 06:11:45;;;;;;;26.58;19.58;;;;;;;19.67;72.90;100255.19;5044865;28;20076;-71
2021/05/27 06:14:11;;;;;;;28.10;16.50;;;;;;;19.36;72.77;100271.94;5046175;28;20493;-69
2021/05/27 06:16:39;;;;;;;30.05;18.27;;;;;;;19.51;72.57;100264.94;5018860;28;20037;-72
2021/05/27 06:19:05;;;;;;;22.90;17.65;;;;;;;19.72;71.70;100271.97;5027506;28;20457;-71
2021/05/27 06:21:39;;;;;;;29.00;16.35;;;;;;;20.10;70.25;100273.66;5011461;28;20141;-72
2021/05/27 06:24:13;;;;;;;26.58;16.50;;;;;;;20.28;70.16;100270.00;5032030;28;20478;-72
2021/05/27 06:26:39;;;;;;;25.75;17.10;;;;;;;20.34;69.33;100275.09;5043482;28;20044;-74
2021/05/27 06:29:05;;;;;;;26.70;15.30;;;;;;;20.17;69.82;100250.88;5018635;28;20409;-72
2021/05/27 06:31:32;;;;;;;22.48;12.65;;;;;;;20.35;68.77;100264.25;5009490;28;20052;-68
2021/05/27 06:33:58;;;;;;;14.98;11.82;;;;;;;20.67;67.45;100268.81;5029481;28;20491;-70
2021/05/27 06:36:26;;;;;;;20.10;12.65;;;;;;;20.75;67.13;100271.97;5029412;28;20178;-68
2021/05/27 06:38:52;;;;;;;34.58;17.25;;;;;;;20.50;67.69;100274.25;5030320;28;20099;-66
2021/05/27 06:41:19;;;;;;;28.70;21.10;;;;;;;19.63;69.99;100259.84;5013948;28;20138;-70
2021/05/27 06:43:49;;;;;;;40.78;23.05;;;;;;;19.59;71.08;100278.91;5027655;28;20146;-65
2021/05/27 06:46:19;;;;;;;32.75;19.77;;;;;;;19.95;70.23;100279.78;5025779;28;20062;-70
2021/05/27 06:48:45;;;;;;;34.88;18.05;;;;;;;20.12;68.86;100285.22;5026003;28;20156;-70
2021/05/27 06:51:12;;;;;;;29.08;17.98;;;;;;;19.96;70.29;100289.59;5010727;28;20127;-69
2021/05/27 06:53:38;;;;;;;26.52;16.65;;;;;;;20.10;69.26;100289.81;5029458;28;20045;-71
2021/05/27 06:56:06;;;;;;;38.65;20.27;;;;;;;19.98;69.71;100295.78;5027524;28;20045;-71
2021/05/27 06:58:34;;;;;;;23.92;14.38;;;;;;;19.44;71.13;100296.66;5029410;28;20583;-71
2021/05/27 07:01:01;;;;;;;19.13;13.82;;;;;;;19.29;70.91;100289.31;5024816;28;20493;-67
2021/05/27 07:03:28;;;;;;;21.15;13.48;;;;;;;19.27;71.31;100296.59;5005557;28;20056;-68
2021/05/27 07:05:56;;;;;;;25.42;13.32;;;;;;;18.88;71.73;100247.31;5010947;28;20052;-68
2021/05/27 07:08:22;;;;;;;21.35;14.57;;;;;;;19.08;72.75;100289.41;5010339;28;20044;-65
2021/05/27 07:10:48;;;;;;;19.10;14.32;;;;;;;19.30;71.85;100290.19;5028914;28;20666;-72
2021/05/27 07:13:15;;;;;;;22.02;13.50;;;;;;;19.43;71.64;100288.66;5017529;28;20869;-69
2021/05/27 07:15:40;;;;;;;21.00;12.48;;;;;;;19.62;70.85;100285.00;5041529;28;20044;-75
2021/05/27 07:18:07;;;;;;;22.77;13.82;;;;;;;19.45;71.33;100287.63;5025258;28;20226;-66
2021/05/27 07:20:34;;;;;;;19.40;13.20;;;;;;;19.42;71.67;100297.69;5012351;28;20041;-70
2021/05/27 07:23:00;;;;;;;25.92;15.75;;;;;;;19.62;72.29;100286.84;5016242;28;20049;-67
2021/05/27 07:25:26;;;;;;;27.95;14.63;;;;;;;19.62;71.79;100293.06;5041272;28;20181;-69
2021/05/27 07:27:54;;;;;;;18.38;13.57;;;;;;;19.14;72.23;100295.34;4989887;28;20049;-68
2021/05/27 07:30:22;;;;;;;20.13;14.77;;;;;;;19.40;72.44;100295.06;4995951;28;20523;-69
2021/05/27 07:32:48;;;;;;;22.23;15.52;;;;;;;19.62;72.43;100295.75;5041109;28;20105;-70
2021/05/27 07:35:15;;;;;;;34.25;16.92;;;;;;;20.06;72.05;100291.75;5027308;28;20505;-68
2021/05/27 07:37:42;;;;;;;23.77;17.15;;;;;;;20.83;69.58;100282.34;5026766;28;20101;-68
2021/05/27 07:40:09;;;;;;;27.33;17.02;;;;;;;22.18;65.38;100284.59;5044381;28;20499;-69
2021/05/27 07:42:35;;;;;;;27.98;16.23;;;;;;;23.01;62.70;100292.06;5030278;28;20107;-69
2021/05/27 07:45:03;;;;;;;24.58;16.20;;;;;;;22.98;61.28;100286.81;5010370;28;20049;-70
2021/05/27 07:47:31;;;;;;;20.40;15.60;;;;;;;22.91;61.95;100292.72;5009808;28;20044;-68
2021/05/27 07:49:59;;;;;;;23.60;15.93;;;;;;;22.47;62.98;100291.88;5041284;28;20053;-69
2021/05/27 07:52:28;;;;;;;25.67;16.25;;;;;;;21.63;64.97;100292.25;5020565;28;20059;-65
2021/05/27 07:54:54;;;;;;;24.08;16.00;;;;;;;21.54;65.00;100280.19;5042863;28;20124;-67
2021/05/27 07:57:22;;;;;;;25.45;15.50;;;;;;;20.88;66.74;100291.94;5010147;28;20045;-74
2021/05/27 07:59:48;;;;;;;19.27;15.10;;;;;;;21.13;65.80;100288.81;5031169;28;20055;-66
2021/05/27 08:02:14;;;;;;;16.85;13.90;;;;;;;21.00;65.71;100285.03;5028722;28;20504;-67
2021/05/27 08:04:43;;;;;;;19.88;13.95;;;;;;;20.47;66.57;100282.47;5029531;28;20056;-68
2021/05/27 08:07:10;;;;;;;20.65;14.45;;;;;;;20.75;66.86;100285.47;5027224;28;20052;-67
2021/05/27 08:09:37;;;;;;;21.42;13.55;;;;;;;20.19;67.53;100263.31;5018471;28;20484;-67
2021/05/27 08:12:05;;;;;;;25.67;14.23;;;;;;;20.28;67.31;100259.25;5024836;28;20554;-67
2021/05/27 08:14:31;;;;;;;26.92;15.02;;;;;;;20.84;66.33;100287.66;5008255;28;20181;-77
2021/05/27 08:16:56;;;;;;;19.17;15.43;;;;;;;20.90;66.51;100276.56;5027654;28;20239;-67
2021/05/27 08:19:22;;;;;;;19.83;13.93;;;;;;;21.10;65.07;100268.28;5043351;28;20542;-66
2021/05/27 08:21:49;;;;;;;17.25;14.68;;;;;;;21.19;64.77;100283.97;5000598;28;20586;-73
2021/05/27 08:24:15;;;;;;;21.23;14.13;;;;;;;21.46;64.31;100282.44;5040132;28;20224;-68
2021/05/27 08:26:41;;;;;;;23.83;13.93;;;;;;;21.53;64.17;100288.34;5013617;28;20049;-69
2021/05/27 08:29:07;;;;;;;20.02;14.45;;;;;;;21.63;64.59;100286.84;5043891;28;20159;-67
2021/05/27 08:31:38;;;;;;;16.35;13.23;;;;;;;21.44;63.87;100272.69;5042586;28;20105;-74
2021/05/27 08:34:04;;;;;;;18.25;11.63;;;;;;;21.26;64.04;100293.47;5030645;28;20075;-72
2021/05/27 08:36:31;;;;;;;15.82;12.32;;;;;;;21.05;64.39;100296.47;5034678;28;20037;-68
2021/05/27 08:38:57;;;;;;;21.17;13.13;;;;;;;20.95;65.56;100297.91;5034717;28;20200;-67
2021/05/27 08:41:23;;;;;;;23.63;13.57;;;;;;;21.24;64.54;100286.41;5032989;28;20052;-68
2021/05/27 08:43:50;;;;;;;18.27;13.65;;;;;;;21.37;64.26;100291.03;5020181;28;20127;-64
2021/05/27 08:46:17;;;;;;;23.95;13.70;;;;;;;21.22;64.82;100264.91;5042597;28;20045;-64
2021/05/27 08:48:44;;;;;;;19.50;14.85;;;;;;;21.29;64.26;100281.63;5030366;28;20041;-73
2021/05/27 08:51:12;;;;;;;24.58;15.18;;;;;;;20.99;65.68;100281.47;5042537;28;20044;-65
2021/05/27 08:53:38;;;;;;;20.30;15.77;;;;;;;20.80;66.17;100288.78;5001706;28;20075;-65
2021/05/27 08:56:05;;;;;;;19.75;15.05;;;;;;;20.74;65.73;100266.66;5014617;28;20060;-67
2021/05/27 08:58:31;;;;;;;19.73;15.13;;;;;;;20.45;67.41;100280.81;5041585;28;20510;-64
2021/05/27 09:01:00;;;;;;;19.73;14.75;;;;;;;20.19;68.24;100286.66;5033112;28;20497;-65
2021/05/27 09:03:43;;;;;;;22.73;14.32;;;;;;;20.31;67.47;100284.22;5027057;28;20045;-67
2021/05/27 09:06:11;;;;;;;22.75;15.25;;;;;;;20.22;67.70;100270.34;5032927;28;20044;-67
2021/05/27 09:08:39;;;;;;;17.95;14.52;;;;;;;20.69;66.52;100285.78;5019833;28;20045;-72
2021/05/27 09:11:14;;;;;;;21.88;14.60;;;;;;;20.41;67.79;100290.84;5015179;28;20041;-69
2021/05/27 09:13:59;;;;;;;18.08;15.13;;;;;;;20.07;68.66;100277.34;5033729;28;20123;-69
2021/05/27 09:16:26;;;;;;;19.02;13.18;;;;;;;20.02;68.10;100290.16;5039239;28;20087;-66
2021/05/27 09:18:52;;;;;;;18.33;11.90;;;;;;;20.33;67.08;100286.84;5041314;28;20044;-68
2021/05/27 09:21:43;;;;;;;21.27;11.65;;;;;;;20.31;67.15;100291.41;5001822;28;20150;-71
2021/05/27 09:24:09;;;;;;;15.98;11.40;;;;;;;20.22;67.21;100300.81;5030768;28;20071;-66
2021/05/27 09:26:56;;;;;;;12.77;10.63;;;;;;;20.23;67.13;100301.72;5020604;28;20041;-73
2021/05/27 09:29:23;;;;;;;15.95;11.60;;;;;;;20.32;67.25;100298.53;5020772;28;20060;-70
2021/05/27 09:31:56;;;;;;;19.42;12.70;;;;;;;20.26;67.09;100298.88;5023986;28;20048;-67
2021/05/27 09:34:54;;;;;;;12.77;10.68;;;;;;;19.81;67.82;100302.00;5026525;28;20064;-66
2021/05/27 09:37:31;;;;;;;17.17;12.70;;;;;;;20.14;67.30;100304.88;5024153;28;20359;-69
2021/05/27 09:40:02;;;;;;;21.60;10.90;;;;;;;20.43;65.99;100296.16;5020235;28;20053;-69
2021/05/27 09:42:28;;;;;;;18.55;10.85;;;;;;;19.97;66.60;100299.44;5024920;28;20030;-70
2021/05/27 09:44:56;;;;;;;14.43;11.20;;;;;;;19.73;67.52;100297.91;5009341;28;20041;-72
2021/05/27 09:47:35;;;;;;;14.70;11.27;;;;;;;19.67;68.07;100279.41;5024567;28;20053;-72
2021/05/27 09:50:07;;;;;;;19.38;12.02;;;;;;;19.58;69.08;100290.63;4993018;28;20045;-69
2021/05/27 09:52:47;;;;;;;12.98;11.40;;;;;;;19.86;68.13;100288.31;5025711;28;20041;-69
2021/05/27 09:55:15;;;;;;;16.05;10.95;;;;;;;19.72;68.38;100290.81;5025205;28;20054;-69
2021/05/27 09:57:49;;;;;;;16.23;11.60;;;;;;;19.85;67.98;100286.56;5023596;28;20528;-74
2021/05/27 10:00:21;;;;;;;14.50;10.63;;;;;;;19.62;68.26;100290.38;5023629;28;20547;-70
2021/05/27 10:02:48;;;;;;;12.38;9.95;;;;;;;19.47;68.26;100276.81;5023572;28;20095;-69
2021/05/27 10:05:15;;;;;;;14.65;10.07;;;;;;;19.39;69.07;100292.44;5025414;28;20061;-68
2021/05/27 10:07:50;;;;;;;16.63;11.00;;;;;;;19.39;69.68;100301.38;5023755;28;20053;-71
2021/05/27 10:10:22;;;;;;;16.48;11.07;;;;;;;19.50;69.31;100295.50;5024521;28;20458;-67
2021/05/27 10:12:51;;;;;;;13.85;10.60;;;;;;;19.59;68.26;100270.81;5024060;28;20179;-67
2021/05/27 10:15:20;;;;;;;22.98;11.40;;;;;;;19.69;68.66;100293.63;5022013;28;20089;-66
2021/05/27 10:17:50;;;;;;;16.33;11.27;;;;;;;19.54;69.12;100284.50;5022512;28;20287;-69
2021/05/27 10:20:22;;;;;;;15.82;11.48;;;;;;;19.64;68.96;100295.69;5024728;28;20476;-67
2021/05/27 10:22:48;;;;;;;13.07;11.20;;;;;;;19.74;68.69;100297.00;5009029;28;20878;-73
2021/05/27 10:25:17;;;;;;;18.23;11.80;;;;;;;19.53;69.72;100298.91;5023550;28;20045;-75
2021/05/27 10:27:47;;;;;;;20.48;12.48;;;;;;;19.92;68.58;100291.56;5024642;28;20048;-72
2021/05/27 10:30:14;;;;;;;21.60;12.15;;;;;;;19.77;68.89;100283.38;5006418;28;20496;-69
2021/05/27 10:32:49;;;;;;;19.63;13.45;;;;;;;19.60;69.63;100297.66;5001821;28;20052;-68
2021/05/27 10:35:15;;;;;;;26.00;14.25;;;;;;;19.65;70.00;100301.00;5026652;28;20463;-70
2021/05/27 10:37:42;;;;;;;20.50;12.95;;;;;;;19.43;70.44;100297.59;5007596;28;20045;-69
2021/05/27 10:40:12;;;;;;;20.05;14.20;;;;;;;19.53;70.22;100295.31;4991182;28;20042;-68
2021/05/27 10:43:10;;;;;;;21.48;14.02;;;;;;;19.58;69.81;100306.75;5005487;28;20049;-68
2021/05/27 10:45:56;;;;;;;20.05;13.65;;;;;;;19.37;71.07;100311.34;4990024;28;20813;-70
2021/05/27 10:48:25;;;;;;;24.25;16.08;;;;;;;19.38;70.27;100293.38;5023751;28;20056;-70
2021/05/27 10:51:12;;;;;;;22.52;14.70;;;;;;;19.48;69.89;100308.13;5025243;28;20468;-69
2021/05/27 10:56:07;;;;;;;19.80;15.40;;;;;;;19.26;70.49;100292.13;5021071;28;20126;-72
2021/05/27 10:58:53;;;;;;;24.90;16.02;;;;;;;19.44;70.46;100295.78;5023111;28;20061;-72
2021/05/27 11:01:42;;;;;;;23.45;14.40;;;;;;;19.41;71.14;100309.34;5021799;28;20125;-80
2021/05/27 11:04:28;;;;;;;26.27;15.45;;;;;;;19.54;70.20;100310.53;4984624;28;20044;-72
2021/05/27 11:07:15;;;;;;;31.77;13.65;;;;;;;19.68;69.81;100305.34;5005473;28;20049;-74
2021/05/27 11:09:42;;;;;;;27.73;13.50;;;;;;;19.76;69.06;100303.16;5020642;28;20060;-73
2021/05/27 11:12:08;;;;;;;34.50;12.40;;;;;;;19.64;69.56;100299.25;5004457;28;20049;-73
2021/05/27 11:14:41;;;;;;;26.60;12.82;;;;;;;19.57;69.89;100305.88;5023393;28;20046;-72
2021/05/27 11:17:09;;;;;;;37.60;13.25;;;;;;;19.63;69.84;100293.94;5023146;28;20037;-75
2021/05/27 11:19:47;;;;;;;31.27;13.60;;;;;;;19.65;70.08;100301.00;5023944;28;20053;-69
2021/05/27 11:25:12;;;;;;;22.63;14.45;;;;;;;19.82;72.12;100300.19;5024666;28;20301;-71
2021/05/27 11:27:40;;;;;;;17.88;14.00;;;;;;;19.87;71.87;100296.31;5011712;28;20129;-68
2021/05/27 11:30:30;;;;;;;14.52;11.02;;;;;;;19.86;71.31;100277.56;4991566;28;20115;-69
2021/05/27 11:33:07;;;;;;;18.23;12.02;;;;;;;20.30;70.48;100292.38;5024468;28;20076;-69
2021/05/27 11:35:41;;;;;;;18.23;10.52;;;;;;;20.39;69.08;100291.91;5034403;28;20038;-71